createdAt,value
2024-02-19T00:02:14.452Z,14.68
2024-02-19T00:04:41.890Z,13.85
2024-02-19T00:07:09.763Z,13.85
2024-02-19T00:09:37.301Z,15.50
2024-02-19T00:12:05.476Z,15.05
2024-02-19T00:14:32.906Z,13.98
2024-02-19T00:17:00.682Z,13.27
2024-02-19T00:19:28.235Z,14.98
2024-02-19T00:21:56.090Z,14.00
2024-02-19T00:24:23.596Z,14.90
2024-02-19T00:26:51.260Z,14.82
2024-02-19T00:29:18.595Z,14.35
2024-02-19T00:31:46.417Z,13.63
2024-02-19T00:34:13.841Z,14.57
2024-02-19T00:36:42.478Z,14.48
2024-02-19T00:39:09.843Z,13.68
2024-02-19T00:41:38.326Z,14.52
2024-02-19T00:44:05.887Z,14.00
2024-02-19T00:46:33.606Z,13.40
2024-02-19T00:49:01.191Z,14.50
2024-02-19T00:51:28.980Z,13.95
2024-02-19T00:53:56.600Z,13.20
2024-02-19T00:56:24.285Z,14.40
2024-02-19T00:58:51.767Z,13.15
2024-02-19T01:01:19.712Z,13.75
2024-02-19T01:03:47.167Z,12.63
2024-02-19T01:06:15.091Z,14.48
2024-02-19T01:08:43.592Z,13.95
2024-02-19T01:11:12.226Z,15.05
2024-02-19T01:13:41.064Z,13.48
2024-02-19T01:16:10.915Z,14.38
2024-02-19T01:18:38.585Z,14.63
2024-02-19T01:21:06.455Z,14.02
2024-02-19T01:23:33.912Z,14.73
2024-02-19T01:26:01.561Z,13.65
2024-02-19T01:28:28.972Z,14.23
2024-02-19T01:30:57.133Z,14.32
2024-02-19T01:33:24.595Z,13.70
2024-02-19T01:35:52.385Z,13.80
2024-02-19T01:38:19.773Z,14.93
2024-02-19T01:40:47.676Z,13.77
2024-02-19T01:43:17.163Z,14.20
2024-02-19T01:45:45.087Z,13.90
2024-02-19T01:48:13.048Z,14.77
2024-02-19T01:50:42.188Z,15.63
2024-02-19T01:53:11.826Z,14.05
2024-02-19T01:55:41.156Z,13.95
2024-02-19T01:58:10.247Z,14.10
2024-02-19T02:00:46.169Z,14.18
2024-02-19T02:03:19.172Z,15.20
2024-02-19T02:05:49.181Z,15.43
2024-02-19T02:08:17.449Z,14.60
2024-02-19T02:10:45.309Z,16.23
2024-02-19T02:13:13.094Z,15.38
2024-02-19T02:15:41.084Z,14.82
2024-02-19T02:18:08.812Z,15.80
2024-02-19T02:20:36.739Z,14.82
2024-02-19T02:23:05.150Z,15.20
2024-02-19T02:25:34.927Z,14.77
2024-02-19T02:28:02.479Z,15.63
2024-02-19T02:30:30.657Z,14.25
2024-02-19T02:32:58.629Z,15.32
2024-02-19T02:35:26.731Z,15.63
2024-02-19T02:37:54.206Z,15.45
2024-02-19T02:40:22.058Z,15.73
2024-02-19T02:42:49.623Z,16.05
2024-02-19T02:45:17.433Z,16.42
2024-02-19T02:47:44.812Z,15.65
2024-02-19T02:50:12.498Z,14.75
2024-02-19T02:52:40.423Z,14.70
2024-02-19T02:55:08.630Z,15.93
2024-02-19T02:57:36.166Z,16.10
2024-02-19T03:00:05.614Z,15.15
2024-02-19T03:02:34.837Z,15.40
2024-02-19T03:05:02.623Z,15.85
2024-02-19T03:07:30.350Z,15.70
2024-02-19T03:09:58.095Z,16.23
2024-02-19T03:12:25.569Z,16.55
2024-02-19T03:14:53.687Z,16.23
2024-02-19T03:17:21.446Z,15.60
2024-02-19T03:19:49.447Z,15.90
2024-02-19T03:22:16.972Z,15.07
2024-02-19T03:24:45.176Z,16.17
2024-02-19T03:27:13.756Z,15.88
2024-02-19T03:29:41.558Z,16.17
2024-02-19T03:32:09.051Z,16.25
2024-02-19T03:34:37.050Z,15.80
2024-02-19T03:37:04.497Z,17.00
2024-02-19T03:39:32.424Z,17.80
2024-02-19T03:42:01.685Z,16.00
2024-02-19T03:44:29.404Z,17.70
2024-02-19T03:46:58.211Z,16.17
2024-02-19T03:49:27.118Z,17.13
2024-02-19T03:51:54.553Z,16.95
2024-02-19T03:54:22.234Z,16.63
2024-02-19T03:56:51.255Z,16.58
2024-02-19T03:59:19.115Z,17.45
2024-02-19T04:01:46.599Z,18.25
2024-02-19T04:04:17.911Z,17.17
2024-02-19T04:06:45.660Z,18.50
2024-02-19T04:09:13.417Z,16.95
2024-02-19T04:11:41.955Z,17.95
2024-02-19T04:14:09.630Z,18.25
2024-02-19T04:16:37.165Z,18.17
2024-02-19T04:19:05.043Z,17.15
2024-02-19T04:21:32.504Z,17.98
2024-02-19T04:24:00.173Z,18.23
2024-02-19T04:26:27.575Z,18.13
2024-02-19T04:28:57.460Z,17.85
2024-02-19T04:31:24.994Z,17.30
2024-02-19T04:33:52.879Z,19.02
2024-02-19T04:36:20.317Z,19.17
2024-02-19T04:38:47.972Z,18.50
2024-02-19T04:41:15.708Z,19.45
2024-02-19T04:43:43.357Z,19.83
2024-02-19T04:46:10.943Z,20.92
2024-02-19T04:48:38.739Z,19.88
2024-02-19T04:51:06.876Z,20.48
2024-02-19T04:53:34.591Z,22.85
2024-02-19T04:56:02.604Z,21.95
2024-02-19T04:58:30.235Z,20.70
2024-02-19T05:00:57.879Z,21.38
2024-02-19T05:03:26.685Z,21.75
2024-02-19T05:05:54.460Z,21.10
2024-02-19T05:08:22.130Z,22.10
2024-02-19T05:10:50.637Z,22.92
2024-02-19T05:13:18.389Z,22.58
2024-02-19T05:15:45.824Z,22.35
2024-02-19T05:18:13.611Z,22.08
2024-02-19T05:20:42.513Z,22.65
2024-02-19T05:23:10.305Z,21.95
2024-02-19T05:25:38.681Z,20.40
2024-02-19T05:28:06.511Z,21.90
2024-02-19T05:30:34.727Z,22.35
2024-02-19T05:33:02.880Z,21.48
2024-02-19T05:35:30.355Z,21.90
2024-02-19T05:37:58.015Z,24.00
2024-02-19T05:40:25.427Z,21.85
2024-02-19T05:42:54.096Z,24.40
2024-02-19T05:45:22.007Z,30.50
2024-02-19T05:47:49.812Z,36.15
2024-02-19T05:50:18.395Z,28.90
2024-02-19T05:52:47.450Z,26.20
2024-02-19T05:55:15.470Z,25.30
2024-02-19T05:57:43.301Z,23.20
2024-02-19T06:00:15.266Z,23.08
2024-02-19T06:05:14.943Z,22.15
2024-02-19T06:07:42.654Z,23.90
2024-02-19T06:10:10.632Z,23.40
2024-02-19T06:12:38.469Z,23.73
2024-02-19T06:15:06.277Z,24.25
2024-02-19T06:17:34.164Z,23.10
2024-02-19T06:20:03.214Z,24.98
2024-02-19T06:22:31.203Z,24.08
2024-02-19T06:24:59.332Z,25.08
2024-02-19T06:27:27.129Z,25.15
2024-02-19T06:29:54.538Z,27.38
2024-02-19T06:32:23.281Z,25.45
2024-02-19T06:34:50.996Z,27.38
2024-02-19T06:37:18.820Z,27.33
2024-02-19T06:39:46.402Z,25.33
2024-02-19T06:42:14.960Z,26.05
2024-02-19T06:44:42.282Z,32.40
2024-02-19T06:47:10.141Z,38.85
2024-02-19T06:49:37.647Z,27.58
2024-02-19T06:52:05.604Z,30.25
2024-02-19T06:54:35.125Z,26.55
2024-02-19T06:57:04.658Z,29.58
2024-02-19T06:59:32.256Z,26.45
2024-02-19T07:02:00.068Z,30.27
2024-02-19T07:04:27.576Z,27.40
2024-02-19T07:06:56.389Z,32.42
2024-02-19T07:09:23.733Z,29.05
2024-02-19T07:11:51.419Z,29.52
2024-02-19T07:14:18.914Z,28.30
2024-02-19T07:16:46.552Z,27.80
2024-02-19T07:19:15.117Z,30.13
2024-02-19T07:21:42.812Z,30.08
2024-02-19T07:24:10.144Z,28.52
2024-02-19T07:26:37.867Z,30.02
2024-02-19T07:29:06.030Z,40.53
2024-02-19T07:31:33.798Z,42.45
2024-02-19T07:34:01.387Z,32.22
2024-02-19T07:36:29.248Z,32.42
2024-02-19T07:38:56.680Z,30.27
2024-02-19T07:41:24.409Z,29.65
2024-02-19T07:43:52.386Z,28.98
2024-02-19T07:46:22.408Z,31.52
2024-02-19T07:48:50.206Z,32.92
2024-02-19T07:51:18.103Z,30.73
2024-02-19T07:53:45.585Z,28.83
2024-02-19T07:56:13.256Z,32.05
2024-02-19T07:58:40.647Z,31.67
2024-02-19T08:01:10.693Z,31.05
2024-02-19T08:03:38.191Z,32.58
2024-02-19T08:06:05.977Z,31.70
2024-02-19T08:08:34.089Z,30.40
2024-02-19T08:11:03.535Z,31.50
2024-02-19T08:13:31.093Z,31.63
2024-02-19T08:16:00.038Z,29.88
2024-02-19T08:18:27.624Z,28.02
2024-02-19T08:20:55.426Z,30.63
2024-02-19T08:23:22.879Z,30.67
2024-02-19T08:25:50.540Z,31.52
2024-02-19T08:28:18.084Z,30.58
2024-02-19T08:30:46.391Z,33.05
2024-02-19T08:33:14.757Z,32.60
2024-02-19T08:35:42.741Z,30.00
2024-02-19T08:38:12.848Z,32.40
2024-02-19T08:40:41.521Z,31.83
2024-02-19T08:43:12.378Z,35.05
2024-02-19T08:45:44.089Z,40.40
2024-02-19T08:48:11.764Z,56.57
2024-02-19T08:50:40.047Z,33.35
2024-02-19T08:53:07.399Z,34.72
2024-02-19T08:55:35.974Z,32.53
2024-02-19T08:58:03.560Z,32.20
2024-02-19T09:00:34.031Z,31.83
2024-02-19T09:03:01.781Z,32.28
2024-02-19T09:05:29.714Z,32.75
2024-02-19T09:07:57.969Z,30.60
2024-02-19T09:10:26.067Z,32.58
2024-02-19T09:12:53.619Z,33.38
2024-02-19T09:15:23.847Z,34.63
2024-02-19T09:17:51.449Z,35.50
2024-02-19T09:20:19.391Z,36.25
2024-02-19T09:22:46.790Z,36.00
2024-02-19T09:25:14.965Z,34.55
2024-02-19T09:27:42.416Z,33.58
2024-02-19T09:30:10.483Z,33.10
2024-02-19T09:32:38.310Z,35.22
2024-02-19T09:35:09.258Z,37.13
2024-02-19T09:37:38.967Z,34.47
2024-02-19T09:40:08.408Z,35.45
2024-02-19T09:42:36.888Z,34.17
2024-02-19T09:45:05.959Z,34.05
2024-02-19T09:47:35.223Z,33.08
2024-02-19T09:50:04.240Z,33.80
2024-02-19T09:52:32.020Z,38.72
2024-02-19T09:55:00.160Z,32.38
2024-02-19T09:57:29.593Z,41.00
2024-02-19T09:59:59.892Z,35.72
2024-02-19T10:02:27.498Z,34.78
2024-02-19T10:04:55.296Z,33.15
2024-02-19T10:07:22.993Z,36.03
2024-02-19T10:09:51.651Z,34.55
2024-02-19T10:12:20.737Z,33.75
2024-02-19T10:14:49.087Z,33.13
2024-02-19T10:17:25.140Z,34.80
2024-02-19T10:20:06.493Z,34.25
2024-02-19T10:22:34.699Z,34.22
2024-02-19T10:25:02.563Z,32.95
2024-02-19T10:27:37.416Z,112.53
2024-02-19T10:30:14.248Z,38.90
2024-02-19T10:32:47.533Z,35.35
2024-02-19T10:35:15.692Z,35.92
2024-02-19T10:37:43.138Z,35.63
2024-02-19T10:40:15.626Z,36.72
2024-02-19T10:42:43.292Z,36.65
2024-02-19T10:45:11.176Z,36.25
2024-02-19T10:47:39.868Z,35.25
2024-02-19T10:50:09.423Z,37.17
2024-02-19T10:52:41.146Z,40.15
2024-02-19T10:55:14.760Z,37.33
2024-02-19T10:57:55.776Z,38.72
2024-02-19T11:00:29.054Z,37.47
2024-02-19T11:03:07.520Z,35.13
2024-02-19T11:05:39.494Z,37.08
2024-02-19T11:08:29.571Z,36.40
2024-02-19T11:10:58.992Z,37.05
2024-02-19T11:13:28.050Z,34.67
2024-02-19T11:15:56.777Z,50.97
2024-02-19T11:18:24.519Z,43.22
2024-02-19T11:20:52.516Z,33.53
2024-02-19T11:23:21.931Z,38.10
2024-02-19T11:25:49.962Z,76.93
2024-02-19T11:28:17.601Z,85.43
2024-02-19T11:30:47.928Z,72.47
2024-02-19T11:33:15.531Z,49.50
2024-02-19T11:35:45.133Z,45.30
2024-02-19T11:38:12.804Z,43.70
2024-02-19T11:40:41.013Z,37.88
2024-02-19T11:43:10.246Z,32.15
2024-02-19T11:45:38.443Z,41.70
2024-02-19T11:48:06.639Z,37.47
2024-02-19T11:50:34.388Z,33.10
2024-02-19T11:53:04.488Z,33.78
2024-02-19T11:55:37.038Z,32.85
2024-02-19T11:58:07.217Z,33.88
2024-02-19T12:00:36.746Z,36.13
2024-02-19T12:03:05.009Z,33.58
2024-02-19T12:05:32.904Z,34.90
2024-02-19T12:08:00.687Z,35.58
2024-02-19T12:10:28.898Z,34.67
2024-02-19T12:12:56.659Z,32.58
2024-02-19T12:15:25.287Z,36.90
2024-02-19T12:17:54.723Z,45.30
2024-02-19T12:20:23.080Z,43.75
2024-02-19T12:22:50.617Z,30.95
2024-02-19T12:25:18.476Z,29.08
2024-02-19T12:27:46.157Z,52.05
2024-02-19T12:30:14.070Z,50.92
2024-02-19T12:32:42.010Z,46.53
2024-02-19T12:35:09.978Z,39.28
2024-02-19T12:37:37.693Z,32.45
2024-02-19T12:40:06.299Z,27.10
2024-02-19T12:42:34.372Z,24.75
2024-02-19T12:45:02.105Z,24.08
2024-02-19T12:47:29.617Z,23.85
2024-02-19T12:49:57.479Z,23.95
2024-02-19T12:52:28.163Z,24.02
2024-02-19T12:54:58.679Z,23.50
2024-02-19T12:57:28.053Z,24.40
2024-02-19T12:59:58.098Z,21.23
2024-02-19T13:02:25.500Z,20.73
2024-02-19T13:04:53.385Z,22.40
2024-02-19T13:07:21.255Z,20.77
2024-02-19T13:09:49.009Z,20.77
2024-02-19T13:12:16.521Z,19.17
2024-02-19T13:14:44.970Z,16.08
2024-02-19T13:17:22.700Z,14.73
2024-02-19T13:19:53.808Z,14.90
2024-02-19T13:22:21.573Z,13.90
2024-02-19T13:24:49.466Z,12.82
2024-02-19T13:27:16.899Z,13.15
2024-02-19T13:29:44.579Z,11.18
2024-02-19T13:32:12.751Z,10.05
2024-02-19T13:34:40.819Z,9.30
2024-02-19T13:37:09.417Z,10.18
2024-02-19T13:39:37.227Z,8.00
2024-02-19T13:42:05.494Z,7.55
2024-02-19T13:44:34.358Z,5.60
2024-02-19T13:47:01.866Z,8.05
2024-02-19T13:49:30.706Z,6.35
2024-02-19T13:51:58.824Z,5.75
2024-02-19T13:54:26.754Z,5.57
2024-02-19T13:56:54.768Z,7.00
2024-02-19T13:59:22.561Z,6.25
2024-02-19T14:01:50.264Z,4.43
2024-02-19T14:04:18.363Z,5.55
2024-02-19T14:06:46.372Z,5.85
2024-02-19T14:09:15.216Z,4.53
2024-02-19T14:11:45.421Z,6.15
2024-02-19T14:14:13.109Z,5.38
2024-02-19T14:16:40.675Z,6.13
2024-02-19T14:19:08.446Z,5.20
2024-02-19T14:21:36.671Z,4.65
2024-02-19T14:24:04.901Z,7.25
2024-02-19T14:26:32.570Z,5.10
2024-02-19T14:29:06.768Z,5.22
2024-02-19T14:31:34.574Z,5.55
2024-02-19T14:34:02.650Z,6.43
2024-02-19T14:36:30.639Z,4.90
2024-02-19T14:38:58.768Z,7.78
2024-02-19T14:41:26.246Z,2.30
2024-02-19T14:43:54.251Z,3.35
2024-02-19T14:46:21.773Z,3.08
2024-02-19T14:48:53.765Z,4.15
2024-02-19T14:51:23.550Z,2.20
2024-02-19T14:53:55.545Z,1.95
2024-02-19T14:56:23.137Z,3.47
2024-02-19T14:58:50.832Z,2.92
2024-02-19T15:01:18.415Z,2.65
2024-02-19T15:03:46.281Z,3.60
2024-02-19T15:06:13.812Z,4.85
2024-02-19T15:08:41.526Z,4.30
2024-02-19T15:11:09.043Z,5.28
2024-02-19T15:13:36.756Z,5.05
2024-02-19T15:16:04.363Z,2.90
2024-02-19T15:18:32.194Z,5.10
2024-02-19T15:20:59.859Z,4.85
2024-02-19T15:23:27.697Z,4.70
2024-02-19T15:25:55.318Z,6.35
2024-02-19T15:28:23.146Z,9.70
2024-02-19T15:30:50.644Z,9.00
2024-02-19T15:33:18.508Z,9.05
2024-02-19T15:35:48.747Z,9.88
2024-02-19T15:38:18.731Z,7.40
2024-02-19T15:40:46.224Z,5.32
2024-02-19T15:43:14.117Z,8.77
2024-02-19T15:45:44.841Z,8.15
2024-02-19T15:48:14.251Z,7.78
2024-02-19T15:50:43.040Z,6.32
2024-02-19T15:53:24.808Z,8.23
2024-02-19T15:55:59.190Z,5.97
2024-02-19T15:58:27.525Z,6.45
2024-02-19T16:00:55.797Z,6.65
2024-02-19T16:03:23.669Z,7.75
2024-02-19T16:05:59.709Z,8.02
2024-02-19T16:08:33.305Z,8.20
2024-02-19T16:11:04.327Z,8.32
2024-02-19T16:13:32.987Z,10.05
2024-02-19T16:16:00.745Z,8.57
2024-02-19T16:18:28.740Z,10.90
2024-02-19T16:20:56.492Z,10.10
2024-02-19T16:23:24.693Z,9.23
2024-02-19T16:25:52.954Z,8.13
2024-02-19T16:28:20.969Z,9.18
2024-02-19T16:30:49.088Z,8.40
2024-02-19T16:33:19.026Z,7.28
2024-02-19T16:35:46.824Z,6.60
2024-02-19T16:38:15.891Z,6.70
2024-02-19T16:40:53.982Z,7.15
2024-02-19T16:43:21.931Z,6.15
2024-02-19T16:45:49.472Z,6.82
2024-02-19T16:48:18.071Z,5.47
2024-02-19T16:50:45.626Z,4.88
2024-02-19T16:53:15.899Z,4.75
2024-02-19T16:55:45.346Z,5.32
2024-02-19T16:58:16.684Z,3.55
2024-02-19T17:00:48.344Z,3.50
2024-02-19T17:03:17.243Z,2.50
2024-02-19T17:05:44.954Z,4.18
2024-02-19T17:08:12.896Z,2.78
2024-02-19T17:10:41.089Z,3.28
2024-02-19T17:13:08.959Z,2.85
2024-02-19T17:15:36.440Z,3.35
2024-02-19T17:18:06.224Z,3.97
2024-02-19T17:20:33.737Z,6.43
2024-02-19T17:23:01.824Z,7.15
2024-02-19T17:25:34.287Z,6.90
2024-02-19T17:28:02.466Z,7.30
2024-02-19T17:30:29.863Z,9.65
2024-02-19T17:32:57.847Z,7.97
2024-02-19T17:35:26.955Z,6.22
2024-02-19T17:37:54.819Z,6.95
2024-02-19T17:40:23.690Z,6.60
2024-02-19T17:42:52.200Z,7.93
2024-02-19T17:45:19.745Z,10.57
2024-02-19T17:47:51.840Z,5.13
2024-02-19T17:50:20.713Z,6.95
2024-02-19T17:52:49.304Z,6.97
2024-02-19T17:55:17.684Z,6.43
2024-02-19T17:57:46.154Z,7.53
2024-02-19T18:00:14.298Z,6.35
2024-02-19T18:02:41.991Z,6.65
2024-02-19T18:05:09.670Z,7.75
2024-02-19T18:07:38.813Z,7.03
2024-02-19T18:10:11.175Z,9.23
2024-02-19T18:12:40.666Z,7.47
2024-02-19T18:15:08.577Z,6.15
2024-02-19T18:17:37.106Z,7.38
2024-02-19T18:20:07.986Z,6.07
2024-02-19T18:22:37.329Z,6.72
2024-02-19T18:25:05.566Z,6.55
2024-02-19T18:27:37.221Z,6.45
2024-02-19T18:30:10.777Z,7.68
2024-02-19T18:32:41.781Z,6.35
2024-02-19T18:35:10.569Z,8.20
2024-02-19T18:37:41.100Z,11.35
2024-02-19T18:40:09.968Z,11.18
2024-02-19T18:42:39.724Z,9.93
2024-02-19T18:45:07.739Z,9.52
2024-02-19T18:47:35.682Z,12.80
2024-02-19T18:50:03.368Z,9.30
2024-02-19T18:52:33.016Z,9.23
2024-02-19T18:55:00.439Z,10.35
2024-02-19T18:57:31.866Z,9.02
2024-02-19T18:59:59.245Z,7.70
2024-02-19T19:02:30.149Z,16.45
2024-02-19T19:04:59.397Z,10.80
2024-02-19T19:07:27.161Z,7.22
2024-02-19T19:09:56.207Z,7.15
2024-02-19T19:12:25.768Z,7.70
2024-02-19T19:14:53.527Z,6.60
2024-02-19T19:17:21.593Z,7.88
2024-02-19T19:19:49.290Z,6.45
2024-02-19T19:22:20.994Z,8.65
2024-02-19T19:24:49.463Z,6.40
2024-02-19T19:27:17.705Z,6.07
2024-02-19T19:29:45.146Z,6.50
2024-02-19T19:32:19.826Z,6.07
2024-02-19T19:34:47.308Z,7.50
2024-02-19T19:37:15.578Z,7.07
2024-02-19T19:39:43.111Z,7.70
2024-02-19T19:42:10.827Z,7.82
2024-02-19T19:44:41.559Z,7.13
2024-02-19T19:47:09.285Z,6.78
2024-02-19T19:49:37.041Z,7.45
2024-02-19T19:52:05.391Z,8.48
2024-02-19T19:54:32.791Z,7.78
2024-02-19T19:57:00.425Z,7.45
2024-02-19T19:59:29.463Z,9.85
2024-02-19T20:01:57.489Z,7.38
2024-02-19T20:04:30.006Z,9.60
2024-02-19T20:06:57.997Z,7.28
2024-02-19T20:09:26.774Z,7.60
2024-02-19T20:11:54.724Z,6.45
2024-02-19T20:14:22.524Z,7.65
2024-02-19T20:16:50.164Z,7.50
2024-02-19T20:19:17.728Z,7.55
2024-02-19T20:21:45.510Z,7.45
2024-02-19T20:24:13.056Z,5.93
2024-02-19T20:26:42.039Z,7.30
2024-02-19T20:29:10.385Z,6.93
2024-02-19T20:31:38.133Z,7.60
2024-02-19T20:34:05.768Z,6.93
2024-02-19T20:36:35.970Z,6.75
2024-02-19T20:39:06.044Z,8.05
2024-02-19T20:41:33.791Z,6.93
2024-02-19T20:44:01.730Z,6.15
2024-02-19T20:46:34.817Z,6.53
2024-02-19T20:49:03.103Z,7.22
2024-02-19T20:51:31.209Z,7.18
2024-02-19T20:53:58.757Z,5.93
2024-02-19T20:56:26.532Z,6.03
2024-02-19T20:58:54.744Z,5.85
2024-02-19T21:01:22.468Z,6.40
2024-02-19T21:03:51.031Z,6.43
2024-02-19T21:06:18.801Z,5.32
2024-02-19T21:08:46.255Z,5.88
2024-02-19T21:11:16.327Z,5.03
2024-02-19T21:13:43.962Z,6.05
2024-02-19T21:16:11.910Z,7.50
2024-02-19T21:18:47.122Z,7.97
2024-02-19T21:21:26.664Z,7.45
2024-02-19T21:24:01.296Z,7.70
2024-02-19T21:26:30.785Z,8.25
2024-02-19T21:28:58.176Z,8.52
2024-02-19T21:31:26.132Z,10.57
2024-02-19T21:33:53.838Z,9.73
2024-02-19T21:36:21.983Z,10.63
2024-02-19T21:38:50.693Z,9.75
2024-02-19T21:41:18.657Z,8.02
2024-02-19T21:43:46.121Z,7.75
2024-02-19T21:46:13.904Z,9.32
2024-02-19T21:48:42.095Z,12.10
2024-02-19T21:51:09.980Z,9.23
2024-02-19T21:53:40.081Z,10.38
2024-02-19T21:56:07.993Z,10.10
2024-02-19T21:58:35.432Z,8.80
2024-02-19T22:01:03.275Z,9.98
2024-02-19T22:03:32.200Z,8.77
2024-02-19T22:06:00.084Z,9.68
2024-02-19T22:08:27.915Z,9.40
2024-02-19T22:10:55.770Z,9.77
2024-02-19T22:13:23.311Z,10.93
2024-02-19T22:15:55.278Z,10.57
2024-02-19T22:18:25.361Z,11.43
2024-02-19T22:20:53.655Z,12.70
2024-02-19T22:23:21.184Z,13.35
2024-02-19T22:25:49.602Z,14.38
2024-02-19T22:28:17.161Z,14.85
2024-02-19T22:30:45.054Z,15.35
2024-02-19T22:33:12.672Z,17.92
2024-02-19T22:35:40.515Z,17.92
2024-02-19T22:38:08.030Z,19.17
2024-02-19T22:40:36.026Z,17.98
2024-02-19T22:43:11.027Z,17.85
2024-02-19T22:45:39.316Z,18.40
2024-02-19T22:48:10.217Z,18.80
2024-02-19T22:50:39.411Z,18.17
2024-02-19T22:53:08.145Z,18.70
2024-02-19T22:55:36.375Z,20.80
2024-02-19T22:58:04.268Z,20.50
2024-02-19T23:00:40.455Z,20.45
2024-02-19T23:03:08.390Z,20.77
2024-02-19T23:05:36.253Z,19.55
2024-02-19T23:08:04.044Z,17.95
2024-02-19T23:11:27.926Z,18.67
2024-02-19T23:14:32.976Z,16.85
2024-02-19T23:17:00.782Z,16.52
2024-02-19T23:19:29.566Z,17.17
2024-02-19T23:21:57.339Z,15.90
2024-02-19T23:24:25.440Z,14.93
2024-02-19T23:26:53.346Z,14.90
2024-02-19T23:29:21.064Z,13.48
2024-02-19T23:31:49.063Z,14.32
2024-02-19T23:34:16.635Z,14.88
2024-02-19T23:36:44.856Z,13.38
2024-02-19T23:39:12.235Z,12.88
2024-02-19T23:41:39.940Z,12.27
2024-02-19T23:44:07.330Z,13.10
2024-02-19T23:46:35.693Z,12.13
2024-02-19T23:49:03.976Z,11.48
2024-02-19T23:51:31.723Z,10.52
2024-02-19T23:53:59.725Z,9.63
2024-02-19T23:56:27.381Z,8.05
2024-02-19T23:58:54.743Z,8.27
